sensor_id;sensor_type;location;lat;lon;timestamp;temperature;humidity
23783;DHT22;12071;50.850;4.446;2023-04-24T00:01:14;9.80;99.90
23783;DHT22;12071;50.850;4.446;2023-04-24T00:03:40;9.90;99.90
23783;DHT22;12071;50.850;4.446;2023-04-24T00:06:06;9.90;99.90
23783;DHT22;12071;50.850;4.446;2023-04-24T00:08:34;9.90;99.90
23783;DHT22;12071;50.850;4.446;2023-04-24T00:11:00;9.90;99.90
23783;DHT22;12071;50.850;4.446;2023-04-24T00:13:25;9.80;99.90
23783;DHT22;12071;50.850;4.446;2023-04-24T00:15:54;9.80;99.90
23783;DHT22;12071;50.850;4.446;2023-04-24T00:18:19;9.70;99.90
23783;DHT22;12071;50.850;4.446;2023-04-24T00:20:45;9.80;99.90
23783;DHT22;12071;50.850;4.446;2023-04-24T00:23:12;9.70;99.90
23783;DHT22;12071;50.850;4.446;2023-04-24T00:25:37;9.60;99.90
23783;DHT22;12071;50.850;4.446;2023-04-24T00:28:03;9.50;99.90
23783;DHT22;12071;50.850;4.446;2023-04-24T00:30:29;9.50;1.00
23783;DHT22;12071;50.850;4.446;2023-04-24T00:32:55;9.40;1.00
23783;DHT22;12071;50.850;4.446;2023-04-24T00:35:20;9.40;1.00
23783;DHT22;12071;50.850;4.446;2023-04-24T00:37:46;9.50;1.00
23783;DHT22;12071;50.850;4.446;2023-04-24T00:40:13;9.50;1.00
23783;DHT22;12071;50.850;4.446;2023-04-24T00:42:40;9.60;1.00
23783;DHT22;12071;50.850;4.446;2023-04-24T00:45:06;9.50;1.00
23783;DHT22;12071;50.850;4.446;2023-04-24T00:47:33;9.60;1.00
23783;DHT22;12071;50.850;4.446;2023-04-24T00:50:04;9.70;1.00
23783;DHT22;12071;50.850;4.446;2023-04-24T00:52:30;9.60;99.90
23783;DHT22;12071;50.850;4.446;2023-04-24T00:54:59;9.50;99.90
23783;DHT22;12071;50.850;4.446;2023-04-24T00:57:25;9.50;99.90
23783;DHT22;12071;50.850;4.446;2023-04-24T00:59:52;9.50;99.90
23783;DHT22;12071;50.850;4.446;2023-04-24T01:02:19;9.60;1.00
23783;DHT22;12071;50.850;4.446;2023-04-24T01:04:45;9.70;99.90
23783;DHT22;12071;50.850;4.446;2023-04-24T01:07:11;9.70;99.90
23783;DHT22;12071;50.850;4.446;2023-04-24T01:09:40;9.70;99.90
23783;DHT22;12071;50.850;4.446;2023-04-24T01:12:07;9.60;99.90
23783;DHT22;12071;50.850;4.446;2023-04-24T01:14:33;9.60;99.90
23783;DHT22;12071;50.850;4.446;2023-04-24T01:16:59;9.60;99.90
23783;DHT22;12071;50.850;4.446;2023-04-24T01:19:24;9.60;99.90
23783;DHT22;12071;50.850;4.446;2023-04-24T01:21:52;9.60;99.90
23783;DHT22;12071;50.850;4.446;2023-04-24T01:24:19;9.50;1.00
23783;DHT22;12071;50.850;4.446;2023-04-24T01:26:45;9.70;1.00
23783;DHT22;12071;50.850;4.446;2023-04-24T01:29:12;9.60;99.90
23783;DHT22;12071;50.850;4.446;2023-04-24T01:31:39;9.60;1.00
23783;DHT22;12071;50.850;4.446;2023-04-24T01:34:05;9.40;1.00
23783;DHT22;12071;50.850;4.446;2023-04-24T01:36:32;9.40;1.00
23783;DHT22;12071;50.850;4.446;2023-04-24T01:38:58;9.40;1.00
23783;DHT22;12071;50.850;4.446;2023-04-24T01:41:24;9.50;1.00
23783;DHT22;12071;50.850;4.446;2023-04-24T01:43:50;9.30;1.00
23783;DHT22;12071;50.850;4.446;2023-04-24T01:46:16;9.20;1.00
23783;DHT22;12071;50.850;4.446;2023-04-24T01:48:42;9.30;1.00
23783;DHT22;12071;50.850;4.446;2023-04-24T01:51:08;9.20;1.00
23783;DHT22;12071;50.850;4.446;2023-04-24T01:53:33;9.50;1.00
23783;DHT22;12071;50.850;4.446;2023-04-24T01:55:59;9.30;1.00
23783;DHT22;12071;50.850;4.446;2023-04-24T01:58:25;9.20;1.00
23783;DHT22;12071;50.850;4.446;2023-04-24T02:00:52;9.10;1.00
23783;DHT22;12071;50.850;4.446;2023-04-24T02:03:17;9.10;1.00
23783;DHT22;12071;50.850;4.446;2023-04-24T02:05:46;9.10;1.00
23783;DHT22;12071;50.850;4.446;2023-04-24T02:08:11;9.00;1.00
23783;DHT22;12071;50.850;4.446;2023-04-24T02:10:37;9.10;1.00
23783;DHT22;12071;50.850;4.446;2023-04-24T02:13:03;9.20;1.00
23783;DHT22;12071;50.850;4.446;2023-04-24T02:15:30;9.10;1.00
23783;DHT22;12071;50.850;4.446;2023-04-24T02:17:55;9.10;1.00
23783;DHT22;12071;50.850;4.446;2023-04-24T02:20:21;9.20;1.00
23783;DHT22;12071;50.850;4.446;2023-04-24T02:22:46;9.20;1.00
23783;DHT22;12071;50.850;4.446;2023-04-24T02:25:12;9.30;1.00
23783;DHT22;12071;50.850;4.446;2023-04-24T02:27:38;9.30;1.00
23783;DHT22;12071;50.850;4.446;2023-04-24T02:30:04;9.20;1.00
23783;DHT22;12071;50.850;4.446;2023-04-24T02:32:30;9.10;1.00
23783;DHT22;12071;50.850;4.446;2023-04-24T02:34:56;9.20;1.00
23783;DHT22;12071;50.850;4.446;2023-04-24T02:37:21;9.00;1.00
23783;DHT22;12071;50.850;4.446;2023-04-24T02:39:47;9.10;1.00
23783;DHT22;12071;50.850;4.446;2023-04-24T02:42:12;9.10;1.00
23783;DHT22;12071;50.850;4.446;2023-04-24T02:44:38;9.10;1.00
23783;DHT22;12071;50.850;4.446;2023-04-24T02:47:04;9.20;1.00
23783;DHT22;12071;50.850;4.446;2023-04-24T02:49:29;9.20;1.00
23783;DHT22;12071;50.850;4.446;2023-04-24T02:51:55;9.10;1.00
23783;DHT22;12071;50.850;4.446;2023-04-24T02:54:21;9.20;1.00
23783;DHT22;12071;50.850;4.446;2023-04-24T02:56:46;9.30;1.00
23783;DHT22;12071;50.850;4.446;2023-04-24T02:59:12;9.20;1.00
23783;DHT22;12071;50.850;4.446;2023-04-24T03:01:38;9.10;1.00
23783;DHT22;12071;50.850;4.446;2023-04-24T03:04:03;9.10;1.00
23783;DHT22;12071;50.850;4.446;2023-04-24T03:06:29;9.10;1.00
23783;DHT22;12071;50.850;4.446;2023-04-24T03:08:56;9.10;1.00
23783;DHT22;12071;50.850;4.446;2023-04-24T03:11:22;9.00;1.00
23783;DHT22;12071;50.850;4.446;2023-04-24T03:13:47;9.10;1.00
23783;DHT22;12071;50.850;4.446;2023-04-24T03:16:13;9.00;1.00
23783;DHT22;12071;50.850;4.446;2023-04-24T03:18:39;9.00;1.00
23783;DHT22;12071;50.850;4.446;2023-04-24T03:21:05;9.00;1.00
23783;DHT22;12071;50.850;4.446;2023-04-24T03:23:30;9.10;1.00
23783;DHT22;12071;50.850;4.446;2023-04-24T03:25:56;9.00;1.00
23783;DHT22;12071;50.850;4.446;2023-04-24T03:28:22;8.90;1.00
23783;DHT22;12071;50.850;4.446;2023-04-24T03:30:47;9.00;1.00
23783;DHT22;12071;50.850;4.446;2023-04-24T03:33:13;9.00;1.00
23783;DHT22;12071;50.850;4.446;2023-04-24T03:35:38;8.90;1.00
23783;DHT22;12071;50.850;4.446;2023-04-24T03:38:04;9.00;1.00
23783;DHT22;12071;50.850;4.446;2023-04-24T03:40:30;8.90;1.00
23783;DHT22;12071;50.850;4.446;2023-04-24T03:42:56;8.90;1.00
23783;DHT22;12071;50.850;4.446;2023-04-24T03:45:21;8.90;1.00
23783;DHT22;12071;50.850;4.446;2023-04-24T03:47:47;8.80;1.00
23783;DHT22;12071;50.850;4.446;2023-04-24T03:50:13;8.80;1.00
23783;DHT22;12071;50.850;4.446;2023-04-24T03:52:38;8.80;1.00
23783;DHT22;12071;50.850;4.446;2023-04-24T03:55:04;8.80;1.00
23783;DHT22;12071;50.850;4.446;2023-04-24T03:57:31;8.80;1.00
23783;DHT22;12071;50.850;4.446;2023-04-24T03:59:57;8.80;1.00
23783;DHT22;12071;50.850;4.446;2023-04-24T04:02:22;8.90;1.00
23783;DHT22;12071;50.850;4.446;2023-04-24T04:04:48;8.90;1.00
23783;DHT22;12071;50.850;4.446;2023-04-24T04:07:14;8.90;1.00
23783;DHT22;12071;50.850;4.446;2023-04-24T04:09:39;8.90;1.00
23783;DHT22;12071;50.850;4.446;2023-04-24T04:12:05;8.90;1.00
23783;DHT22;12071;50.850;4.446;2023-04-24T04:14:31;8.90;1.00
23783;DHT22;12071;50.850;4.446;2023-04-24T04:16:56;9.00;1.00
23783;DHT22;12071;50.850;4.446;2023-04-24T04:19:22;9.00;1.00
23783;DHT22;12071;50.850;4.446;2023-04-24T04:21:48;9.00;1.00
23783;DHT22;12071;50.850;4.446;2023-04-24T04:24:18;8.90;1.00
23783;DHT22;12071;50.850;4.446;2023-04-24T04:26:46;8.90;1.00
23783;DHT22;12071;50.850;4.446;2023-04-24T04:29:13;8.90;1.00
23783;DHT22;12071;50.850;4.446;2023-04-24T04:31:38;9.00;1.00
23783;DHT22;12071;50.850;4.446;2023-04-24T04:34:05;9.00;1.00
23783;DHT22;12071;50.850;4.446;2023-04-24T04:36:31;9.00;1.00
23783;DHT22;12071;50.850;4.446;2023-04-24T04:38:56;9.10;1.00
23783;DHT22;12071;50.850;4.446;2023-04-24T04:41:24;9.00;1.00
23783;DHT22;12071;50.850;4.446;2023-04-24T04:43:50;9.00;1.00
23783;DHT22;12071;50.850;4.446;2023-04-24T04:46:16;9.00;1.00
23783;DHT22;12071;50.850;4.446;2023-04-24T04:48:42;9.00;1.00
23783;DHT22;12071;50.850;4.446;2023-04-24T04:51:07;9.00;1.00
23783;DHT22;12071;50.850;4.446;2023-04-24T04:53:33;9.10;1.00
23783;DHT22;12071;50.850;4.446;2023-04-24T04:55:58;9.00;1.00
23783;DHT22;12071;50.850;4.446;2023-04-24T04:58:25;9.00;1.00
23783;DHT22;12071;50.850;4.446;2023-04-24T05:00:50;8.90;1.00
23783;DHT22;12071;50.850;4.446;2023-04-24T05:03:16;8.90;1.00
23783;DHT22;12071;50.850;4.446;2023-04-24T05:05:41;9.00;1.00
23783;DHT22;12071;50.850;4.446;2023-04-24T05:08:08;9.00;1.00
23783;DHT22;12071;50.850;4.446;2023-04-24T05:10:34;8.90;1.00
23783;DHT22;12071;50.850;4.446;2023-04-24T05:13:00;8.90;1.00
23783;DHT22;12071;50.850;4.446;2023-04-24T05:15:26;8.90;1.00
23783;DHT22;12071;50.850;4.446;2023-04-24T05:17:51;8.80;1.00
23783;DHT22;12071;50.850;4.446;2023-04-24T05:20:17;8.80;1.00
23783;DHT22;12071;50.850;4.446;2023-04-24T05:22:43;8.80;1.00
23783;DHT22;12071;50.850;4.446;2023-04-24T05:25:09;8.80;1.00
23783;DHT22;12071;50.850;4.446;2023-04-24T05:27:34;8.80;1.00
23783;DHT22;12071;50.850;4.446;2023-04-24T05:30:00;8.90;1.00
23783;DHT22;12071;50.850;4.446;2023-04-24T05:32:26;8.80;1.00
23783;DHT22;12071;50.850;4.446;2023-04-24T05:34:52;8.90;1.00
23783;DHT22;12071;50.850;4.446;2023-04-24T05:37:18;8.90;1.00
23783;DHT22;12071;50.850;4.446;2023-04-24T05:39:43;9.00;1.00
23783;DHT22;12071;50.850;4.446;2023-04-24T05:42:09;9.00;1.00
23783;DHT22;12071;50.850;4.446;2023-04-24T05:44:35;8.90;1.00
23783;DHT22;12071;50.850;4.446;2023-04-24T05:47:00;8.90;1.00
23783;DHT22;12071;50.850;4.446;2023-04-24T05:49:27;8.80;1.00
23783;DHT22;12071;50.850;4.446;2023-04-24T05:51:52;8.70;1.00
23783;DHT22;12071;50.850;4.446;2023-04-24T05:54:18;8.80;1.00
23783;DHT22;12071;50.850;4.446;2023-04-24T05:56:44;8.70;1.00
23783;DHT22;12071;50.850;4.446;2023-04-24T05:59:09;8.90;1.00
23783;DHT22;12071;50.850;4.446;2023-04-24T06:01:35;8.90;1.00
23783;DHT22;12071;50.850;4.446;2023-04-24T06:04:03;8.80;1.00
23783;DHT22;12071;50.850;4.446;2023-04-24T06:06:29;8.80;1.00
23783;DHT22;12071;50.850;4.446;2023-04-24T06:08:54;8.80;1.00
23783;DHT22;12071;50.850;4.446;2023-04-24T06:11:20;8.70;1.00
23783;DHT22;12071;50.850;4.446;2023-04-24T06:13:46;8.80;1.00
23783;DHT22;12071;50.850;4.446;2023-04-24T06:16:12;8.80;1.00
23783;DHT22;12071;50.850;4.446;2023-04-24T06:18:38;8.70;1.00
23783;DHT22;12071;50.850;4.446;2023-04-24T06:21:03;8.70;1.00
23783;DHT22;12071;50.850;4.446;2023-04-24T06:23:29;8.80;1.00
23783;DHT22;12071;50.850;4.446;2023-04-24T06:25:57;8.80;1.00
23783;DHT22;12071;50.850;4.446;2023-04-24T06:28:23;8.70;1.00
23783;DHT22;12071;50.850;4.446;2023-04-24T06:30:49;8.70;1.00
23783;DHT22;12071;50.850;4.446;2023-04-24T06:33:16;8.70;1.00
23783;DHT22;12071;50.850;4.446;2023-04-24T06:35:42;8.70;1.00
23783;DHT22;12071;50.850;4.446;2023-04-24T06:38:07;8.60;1.00
23783;DHT22;12071;50.850;4.446;2023-04-24T06:40:33;8.70;1.00
23783;DHT22;12071;50.850;4.446;2023-04-24T06:42:59;8.60;1.00
23783;DHT22;12071;50.850;4.446;2023-04-24T06:45:25;8.70;1.00
23783;DHT22;12071;50.850;4.446;2023-04-24T06:47:51;8.70;1.00
23783;DHT22;12071;50.850;4.446;2023-04-24T06:50:17;8.70;1.00
23783;DHT22;12071;50.850;4.446;2023-04-24T06:52:43;8.70;1.00
23783;DHT22;12071;50.850;4.446;2023-04-24T06:55:09;8.80;1.00
23783;DHT22;12071;50.850;4.446;2023-04-24T06:57:36;8.80;1.00
23783;DHT22;12071;50.850;4.446;2023-04-24T07:00:03;8.90;1.00
23783;DHT22;12071;50.850;4.446;2023-04-24T07:02:28;8.90;1.00
23783;DHT22;12071;50.850;4.446;2023-04-24T07:04:54;9.00;1.00
23783;DHT22;12071;50.850;4.446;2023-04-24T07:07:20;9.00;1.00
23783;DHT22;12071;50.850;4.446;2023-04-24T07:09:46;9.10;1.00
23783;DHT22;12071;50.850;4.446;2023-04-24T07:12:11;9.10;1.00
23783;DHT22;12071;50.850;4.446;2023-04-24T07:14:37;9.00;1.00
23783;DHT22;12071;50.850;4.446;2023-04-24T07:17:04;8.90;1.00
23783;DHT22;12071;50.850;4.446;2023-04-24T07:19:30;9.00;1.00
23783;DHT22;12071;50.850;4.446;2023-04-24T07:21:56;9.10;1.00
23783;DHT22;12071;50.850;4.446;2023-04-24T07:24:24;9.10;1.00
23783;DHT22;12071;50.850;4.446;2023-04-24T07:26:51;9.20;1.00
23783;DHT22;12071;50.850;4.446;2023-04-24T07:29:17;9.30;1.00
23783;DHT22;12071;50.850;4.446;2023-04-24T07:31:43;9.50;1.00
23783;DHT22;12071;50.850;4.446;2023-04-24T07:34:09;9.60;1.00
23783;DHT22;12071;50.850;4.446;2023-04-24T07:36:35;9.50;1.00
23783;DHT22;12071;50.850;4.446;2023-04-24T07:39:01;9.50;99.90
23783;DHT22;12071;50.850;4.446;2023-04-24T07:41:26;9.60;99.90
23783;DHT22;12071;50.850;4.446;2023-04-24T07:43:53;9.70;99.90
23783;DHT22;12071;50.850;4.446;2023-04-24T07:46:19;9.80;99.90
23783;DHT22;12071;50.850;4.446;2023-04-24T07:48:45;10.00;99.90
23783;DHT22;12071;50.850;4.446;2023-04-24T07:51:14;10.00;99.90
23783;DHT22;12071;50.850;4.446;2023-04-24T07:53:41;9.90;99.90
23783;DHT22;12071;50.850;4.446;2023-04-24T07:56:07;9.90;99.90
23783;DHT22;12071;50.850;4.446;2023-04-24T07:58:33;9.90;99.90
23783;DHT22;12071;50.850;4.446;2023-04-24T08:00:59;9.90;99.90
23783;DHT22;12071;50.850;4.446;2023-04-24T08:03:25;9.90;99.90
23783;DHT22;12071;50.850;4.446;2023-04-24T08:05:50;10.10;99.90
23783;DHT22;12071;50.850;4.446;2023-04-24T08:08:16;10.20;99.90
23783;DHT22;12071;50.850;4.446;2023-04-24T08:10:42;10.10;99.90
23783;DHT22;12071;50.850;4.446;2023-04-24T08:13:08;10.00;99.90
23783;DHT22;12071;50.850;4.446;2023-04-24T08:15:34;9.90;99.90
23783;DHT22;12071;50.850;4.446;2023-04-24T08:17:59;9.90;99.90
23783;DHT22;12071;50.850;4.446;2023-04-24T08:20:25;10.00;99.90
23783;DHT22;12071;50.850;4.446;2023-04-24T08:22:50;9.80;99.90
23783;DHT22;12071;50.850;4.446;2023-04-24T08:25:16;9.90;99.90
23783;DHT22;12071;50.850;4.446;2023-04-24T08:27:43;9.90;99.90
23783;DHT22;12071;50.850;4.446;2023-04-24T08:30:09;10.20;99.90
23783;DHT22;12071;50.850;4.446;2023-04-24T08:32:35;10.20;99.90
23783;DHT22;12071;50.850;4.446;2023-04-24T08:35:01;10.20;99.90
23783;DHT22;12071;50.850;4.446;2023-04-24T08:37:27;10.30;99.90
23783;DHT22;12071;50.850;4.446;2023-04-24T08:39:53;10.30;99.90
23783;DHT22;12071;50.850;4.446;2023-04-24T08:42:19;10.40;99.90
23783;DHT22;12071;50.850;4.446;2023-04-24T08:44:47;10.60;99.90
23783;DHT22;12071;50.850;4.446;2023-04-24T08:47:14;10.60;99.90
23783;DHT22;12071;50.850;4.446;2023-04-24T08:49:40;10.60;99.90
23783;DHT22;12071;50.850;4.446;2023-04-24T08:52:06;10.40;99.90
23783;DHT22;12071;50.850;4.446;2023-04-24T08:54:33;10.60;99.90
23783;DHT22;12071;50.850;4.446;2023-04-24T08:57:00;10.70;99.90
23783;DHT22;12071;50.850;4.446;2023-04-24T08:59:32;10.80;1.00
23783;DHT22;12071;50.850;4.446;2023-04-24T09:02:00;10.90;1.00
23783;DHT22;12071;50.850;4.446;2023-04-24T09:04:26;11.10;1.00
23783;DHT22;12071;50.850;4.446;2023-04-24T09:06:56;11.20;1.00
23783;DHT22;12071;50.850;4.446;2023-04-24T09:09:23;11.20;99.90
23783;DHT22;12071;50.850;4.446;2023-04-24T09:11:52;11.30;99.90
23783;DHT22;12071;50.850;4.446;2023-04-24T09:14:21;11.20;99.90
23783;DHT22;12071;50.850;4.446;2023-04-24T09:16:47;11.20;1.00
23783;DHT22;12071;50.850;4.446;2023-04-24T09:19:13;11.30;1.00
23783;DHT22;12071;50.850;4.446;2023-04-24T09:21:39;11.50;99.90
23783;DHT22;12071;50.850;4.446;2023-04-24T09:24:14;11.70;1.00
23783;DHT22;12071;50.850;4.446;2023-04-24T09:26:43;11.80;36.00
23783;DHT22;12071;50.850;4.446;2023-04-24T09:29:17;11.60;99.90
23783;DHT22;12071;50.850;4.446;2023-04-24T09:31:45;11.70;99.90
23783;DHT22;12071;50.850;4.446;2023-04-24T09:34:11;11.50;99.90
23783;DHT22;12071;50.850;4.446;2023-04-24T09:36:39;11.40;99.90
23783;DHT22;12071;50.850;4.446;2023-04-24T09:39:14;11.40;99.90
23783;DHT22;12071;50.850;4.446;2023-04-24T09:44:18;11.50;1.00
23783;DHT22;12071;50.850;4.446;2023-04-24T09:46:50;11.40;99.90
23783;DHT22;12071;50.850;4.446;2023-04-24T09:49:24;11.40;99.90
23783;DHT22;12071;50.850;4.446;2023-04-24T09:51:50;11.40;99.90
23783;DHT22;12071;50.850;4.446;2023-04-24T09:54:20;11.50;1.00
23783;DHT22;12071;50.850;4.446;2023-04-24T09:56:48;11.70;9.30
23783;DHT22;12071;50.850;4.446;2023-04-24T09:59:16;11.80;1.00
23783;DHT22;12071;50.850;4.446;2023-04-24T10:01:42;11.80;99.90
23783;DHT22;12071;50.850;4.446;2023-04-24T10:06:43;11.60;99.90
23783;DHT22;12071;50.850;4.446;2023-04-24T10:09:09;11.40;99.90
23783;DHT22;12071;50.850;4.446;2023-04-24T10:11:37;11.80;99.90
23783;DHT22;12071;50.850;4.446;2023-04-24T10:14:06;11.90;80.80
23783;DHT22;12071;50.850;4.446;2023-04-24T10:16:32;11.80;99.90
23783;DHT22;12071;50.850;4.446;2023-04-24T10:18:59;12.00;99.90
23783;DHT22;12071;50.850;4.446;2023-04-24T10:21:26;12.30;99.90
23783;DHT22;12071;50.850;4.446;2023-04-24T10:23:52;12.00;99.90
23783;DHT22;12071;50.850;4.446;2023-04-24T10:26:19;12.00;99.90
23783;DHT22;12071;50.850;4.446;2023-04-24T10:28:46;11.90;99.90
23783;DHT22;12071;50.850;4.446;2023-04-24T10:31:17;11.60;80.70
23783;DHT22;12071;50.850;4.446;2023-04-24T10:33:45;11.60;99.90
23783;DHT22;12071;50.850;4.446;2023-04-24T10:36:12;11.40;99.90
23783;DHT22;12071;50.850;4.446;2023-04-24T10:38:41;11.40;99.90
23783;DHT22;12071;50.850;4.446;2023-04-24T10:41:13;11.70;99.90
23783;DHT22;12071;50.850;4.446;2023-04-24T10:43:45;12.00;99.90
23783;DHT22;12071;50.850;4.446;2023-04-24T10:46:19;12.40;1.00
23783;DHT22;12071;50.850;4.446;2023-04-24T10:48:55;12.40;1.00
23783;DHT22;12071;50.850;4.446;2023-04-24T10:51:22;12.40;1.00
23783;DHT22;12071;50.850;4.446;2023-04-24T10:53:50;12.40;1.00
23783;DHT22;12071;50.850;4.446;2023-04-24T10:56:17;12.20;99.90
23783;DHT22;12071;50.850;4.446;2023-04-24T10:58:51;12.30;1.00
23783;DHT22;12071;50.850;4.446;2023-04-24T11:04:02;12.30;1.00
23783;DHT22;12071;50.850;4.446;2023-04-24T11:06:32;12.10;1.00
23783;DHT22;12071;50.850;4.446;2023-04-24T11:09:10;12.10;99.90
23783;DHT22;12071;50.850;4.446;2023-04-24T11:11:38;12.10;1.00
23783;DHT22;12071;50.850;4.446;2023-04-24T11:14:09;12.20;99.90
23783;DHT22;12071;50.850;4.446;2023-04-24T11:16:40;12.00;1.00
23783;DHT22;12071;50.850;4.446;2023-04-24T11:25:11;12.00;1.00
23783;DHT22;12071;50.850;4.446;2023-04-24T11:27:22;12.20;99.90
23783;DHT22;12071;50.850;4.446;2023-04-24T11:32:41;12.40;99.90
23783;DHT22;12071;50.850;4.446;2023-04-24T11:37:48;12.40;99.90
23783;DHT22;12071;50.850;4.446;2023-04-24T11:40:16;12.50;99.90
23783;DHT22;12071;50.850;4.446;2023-04-24T11:42:44;12.70;99.90
23783;DHT22;12071;50.850;4.446;2023-04-24T11:45:15;12.80;99.90
23783;DHT22;12071;50.850;4.446;2023-04-24T11:47:42;12.50;1.00
23783;DHT22;12071;50.850;4.446;2023-04-24T11:50:10;12.70;18.90
23783;DHT22;12071;50.850;4.446;2023-04-24T11:52:41;12.70;1.00
23783;DHT22;12071;50.850;4.446;2023-04-24T11:57:42;12.50;1.00
23783;DHT22;12071;50.850;4.446;2023-04-24T12:00:25;12.80;17.60
23783;DHT22;12071;50.850;4.446;2023-04-24T12:02:51;13.20;1.00
23783;DHT22;12071;50.850;4.446;2023-04-24T12:05:20;13.60;1.00
23783;DHT22;12071;50.850;4.446;2023-04-24T12:07:46;13.70;99.90
23783;DHT22;12071;50.850;4.446;2023-04-24T12:10:12;13.70;99.90
23783;DHT22;12071;50.850;4.446;2023-04-24T12:12:38;13.90;99.90
23783;DHT22;12071;50.850;4.446;2023-04-24T12:15:08;13.70;99.90
23783;DHT22;12071;50.850;4.446;2023-04-24T12:17:34;13.20;99.90
23783;DHT22;12071;50.850;4.446;2023-04-24T12:20:03;12.80;99.90
23783;DHT22;12071;50.850;4.446;2023-04-24T12:25:10;13.30;99.90
23783;DHT22;12071;50.850;4.446;2023-04-24T12:27:36;13.40;99.90
23783;DHT22;12071;50.850;4.446;2023-04-24T12:30:04;13.30;99.90
23783;DHT22;12071;50.850;4.446;2023-04-24T12:32:31;13.10;99.90
23783;DHT22;12071;50.850;4.446;2023-04-24T12:34:57;12.90;99.90
23783;DHT22;12071;50.850;4.446;2023-04-24T12:37:25;13.10;99.90
23783;DHT22;12071;50.850;4.446;2023-04-24T12:40:08;13.30;99.90
23783;DHT22;12071;50.850;4.446;2023-04-24T12:42:36;13.30;99.90
23783;DHT22;12071;50.850;4.446;2023-04-24T12:45:07;13.40;99.90
23783;DHT22;12071;50.850;4.446;2023-04-24T12:47:34;13.70;99.90
23783;DHT22;12071;50.850;4.446;2023-04-24T12:50:01;13.50;99.90
23783;DHT22;12071;50.850;4.446;2023-04-24T12:52:28;13.70;99.90
23783;DHT22;12071;50.850;4.446;2023-04-24T12:54:56;13.50;99.90
23783;DHT22;12071;50.850;4.446;2023-04-24T12:57:22;13.60;50.60
23783;DHT22;12071;50.850;4.446;2023-04-24T12:59:48;13.70;78.80
23783;DHT22;12071;50.850;4.446;2023-04-24T13:02:14;14.00;31.90
23783;DHT22;12071;50.850;4.446;2023-04-24T13:04:46;14.00;14.80
23783;DHT22;12071;50.850;4.446;2023-04-24T13:07:12;14.30;99.90
23783;DHT22;12071;50.850;4.446;2023-04-24T13:09:39;14.30;23.90
23783;DHT22;12071;50.850;4.446;2023-04-24T13:12:05;14.70;5.10
23783;DHT22;12071;50.850;4.446;2023-04-24T13:14:33;14.50;1.00
23783;DHT22;12071;50.850;4.446;2023-04-24T13:16:59;14.50;1.00
23783;DHT22;12071;50.850;4.446;2023-04-24T13:19:26;14.40;1.00
23783;DHT22;12071;50.850;4.446;2023-04-24T13:21:53;13.70;1.00
23783;DHT22;12071;50.850;4.446;2023-04-24T13:24:20;13.60;27.10
23783;DHT22;12071;50.850;4.446;2023-04-24T13:26:46;13.50;1.00
23783;DHT22;12071;50.850;4.446;2023-04-24T13:29:12;13.50;1.00
23783;DHT22;12071;50.850;4.446;2023-04-24T13:31:37;13.20;1.00
23783;DHT22;12071;50.850;4.446;2023-04-24T13:34:03;13.00;1.00
23783;DHT22;12071;50.850;4.446;2023-04-24T13:36:29;13.30;20.70
23783;DHT22;12071;50.850;4.446;2023-04-24T13:38:55;13.30;1.00
23783;DHT22;12071;50.850;4.446;2023-04-24T13:41:21;13.20;1.00
23783;DHT22;12071;50.850;4.446;2023-04-24T13:43:47;13.50;1.00
23783;DHT22;12071;50.850;4.446;2023-04-24T13:46:12;14.10;1.00
23783;DHT22;12071;50.850;4.446;2023-04-24T13:48:38;14.60;1.00
23783;DHT22;12071;50.850;4.446;2023-04-24T13:51:04;15.20;1.00
23783;DHT22;12071;50.850;4.446;2023-04-24T13:53:29;14.80;1.00
23783;DHT22;12071;50.850;4.446;2023-04-24T13:55:55;14.20;1.00
23783;DHT22;12071;50.850;4.446;2023-04-24T13:58:21;14.30;1.00
23783;DHT22;12071;50.850;4.446;2023-04-24T14:00:46;14.10;1.00
23783;DHT22;12071;50.850;4.446;2023-04-24T14:03:12;13.80;1.00
23783;DHT22;12071;50.850;4.446;2023-04-24T14:05:38;14.00;1.00
23783;DHT22;12071;50.850;4.446;2023-04-24T14:08:04;14.60;1.00
23783;DHT22;12071;50.850;4.446;2023-04-24T14:10:30;15.90;1.00
23783;DHT22;12071;50.850;4.446;2023-04-24T14:12:55;17.20;99.90
23783;DHT22;12071;50.850;4.446;2023-04-24T14:15:21;16.30;99.90
23783;DHT22;12071;50.850;4.446;2023-04-24T14:17:47;15.30;99.90
23783;DHT22;12071;50.850;4.446;2023-04-24T14:20:13;14.80;99.90
23783;DHT22;12071;50.850;4.446;2023-04-24T14:22:39;14.20;99.90
23783;DHT22;12071;50.850;4.446;2023-04-24T14:25:06;13.90;99.90
23783;DHT22;12071;50.850;4.446;2023-04-24T14:27:32;13.40;99.90
23783;DHT22;12071;50.850;4.446;2023-04-24T14:30:00;13.50;99.90
23783;DHT22;12071;50.850;4.446;2023-04-24T14:32:25;13.40;99.90
23783;DHT22;12071;50.850;4.446;2023-04-24T14:34:51;13.40;99.90
23783;DHT22;12071;50.850;4.446;2023-04-24T14:37:17;13.60;99.90
23783;DHT22;12071;50.850;4.446;2023-04-24T14:39:42;13.10;99.90
23783;DHT22;12071;50.850;4.446;2023-04-24T14:42:08;13.00;99.90
23783;DHT22;12071;50.850;4.446;2023-04-24T14:44:34;12.70;99.90
23783;DHT22;12071;50.850;4.446;2023-04-24T14:46:59;12.80;99.90
23783;DHT22;12071;50.850;4.446;2023-04-24T14:49:26;12.50;99.90
23783;DHT22;12071;50.850;4.446;2023-04-24T14:51:51;12.80;99.90
23783;DHT22;12071;50.850;4.446;2023-04-24T14:54:17;12.80;99.90
23783;DHT22;12071;50.850;4.446;2023-04-24T14:56:43;12.80;99.90
23783;DHT22;12071;50.850;4.446;2023-04-24T14:59:10;12.70;99.90
23783;DHT22;12071;50.850;4.446;2023-04-24T15:01:36;12.70;99.90
23783;DHT22;12071;50.850;4.446;2023-04-24T15:04:01;12.80;1.00
23783;DHT22;12071;50.850;4.446;2023-04-24T15:06:27;12.80;99.90
23783;DHT22;12071;50.850;4.446;2023-04-24T15:08:53;12.70;99.90
23783;DHT22;12071;50.850;4.446;2023-04-24T15:11:19;12.70;99.90
23783;DHT22;12071;50.850;4.446;2023-04-24T15:13:45;12.70;99.90
23783;DHT22;12071;50.850;4.446;2023-04-24T15:16:11;12.90;99.90
23783;DHT22;12071;50.850;4.446;2023-04-24T15:18:36;13.20;99.90
23783;DHT22;12071;50.850;4.446;2023-04-24T15:21:02;13.10;99.90
23783;DHT22;12071;50.850;4.446;2023-04-24T15:23:28;13.30;99.90
23783;DHT22;12071;50.850;4.446;2023-04-24T15:25:54;13.10;99.90
23783;DHT22;12071;50.850;4.446;2023-04-24T15:28:20;13.00;99.90
23783;DHT22;12071;50.850;4.446;2023-04-24T15:30:47;13.20;99.90
23783;DHT22;12071;50.850;4.446;2023-04-24T15:33:13;13.10;99.90
23783;DHT22;12071;50.850;4.446;2023-04-24T15:35:38;12.80;99.90
23783;DHT22;12071;50.850;4.446;2023-04-24T15:38:04;12.90;99.90
23783;DHT22;12071;50.850;4.446;2023-04-24T15:40:30;12.80;99.90
23783;DHT22;12071;50.850;4.446;2023-04-24T15:42:55;12.60;99.90
23783;DHT22;12071;50.850;4.446;2023-04-24T15:45:21;12.60;99.90
23783;DHT22;12071;50.850;4.446;2023-04-24T15:47:47;12.50;99.90
23783;DHT22;12071;50.850;4.446;2023-04-24T15:50:13;12.40;99.90
23783;DHT22;12071;50.850;4.446;2023-04-24T15:52:41;12.40;99.90
23783;DHT22;12071;50.850;4.446;2023-04-24T15:55:07;12.40;99.90
23783;DHT22;12071;50.850;4.446;2023-04-24T15:57:33;12.60;99.90
23783;DHT22;12071;50.850;4.446;2023-04-24T15:59:58;12.50;99.90
23783;DHT22;12071;50.850;4.446;2023-04-24T16:02:24;12.40;99.90
23783;DHT22;12071;50.850;4.446;2023-04-24T16:04:50;12.30;99.90
23783;DHT22;12071;50.850;4.446;2023-04-24T16:07:17;12.20;99.90